createdAt,value
2023-03-04T00:00:46.250Z,14.38
2023-03-04T00:01:50.491Z,15.65
2023-03-04T00:02:53.040Z,13.40
2023-03-04T00:03:55.575Z,13.32
2023-03-04T00:04:58.065Z,13.10
2023-03-04T00:06:00.567Z,13.65
2023-03-04T00:07:03.150Z,12.40
2023-03-04T00:08:05.667Z,11.68
2023-03-04T00:09:08.201Z,14.50
2023-03-04T00:10:11.636Z,12.02
2023-03-04T00:11:17.071Z,13.82
2023-03-04T00:12:19.845Z,13.82
2023-03-04T00:13:22.540Z,14.00
2023-03-04T00:14:25.255Z,13.50
2023-03-04T00:15:27.796Z,13.50
2023-03-04T00:16:30.290Z,14.05
2023-03-04T00:17:32.861Z,12.43
2023-03-04T00:18:35.414Z,13.27
2023-03-04T00:19:38.054Z,11.88
2023-03-04T00:20:40.574Z,12.50
2023-03-04T00:21:43.222Z,12.32
2023-03-04T00:22:45.653Z,12.27
2023-03-04T00:23:48.781Z,13.57
2023-03-04T00:24:51.344Z,13.85
2023-03-04T00:25:53.831Z,13.63
2023-03-04T00:26:56.374Z,13.02
2023-03-04T00:27:59.037Z,13.43
2023-03-04T00:29:02.033Z,13.48
2023-03-04T00:30:06.322Z,15.25
2023-03-04T00:31:09.457Z,12.65
2023-03-04T00:32:12.898Z,12.88
2023-03-04T00:33:15.668Z,14.63
2023-03-04T00:34:18.446Z,12.30
2023-03-04T00:35:21.069Z,12.55
2023-03-04T00:36:23.733Z,14.02
2023-03-04T00:37:26.446Z,13.63
2023-03-04T00:38:29.021Z,14.15
2023-03-04T00:39:31.610Z,12.65
2023-03-04T00:40:34.113Z,15.25
2023-03-04T00:41:36.562Z,13.15
2023-03-04T00:42:39.080Z,13.13
2023-03-04T00:43:41.616Z,13.95
2023-03-04T00:44:44.051Z,13.52
2023-03-04T00:45:46.639Z,12.70
2023-03-04T00:46:49.949Z,14.55
2023-03-04T00:47:52.407Z,14.70
2023-03-04T00:48:54.884Z,14.55
2023-03-04T00:49:57.406Z,13.98
2023-03-04T00:50:59.839Z,14.82
2023-03-04T00:52:02.322Z,15.00
2023-03-04T00:53:05.584Z,14.85
2023-03-04T00:54:08.063Z,16.20
2023-03-04T00:55:10.807Z,15.27
2023-03-04T00:56:13.634Z,15.07
2023-03-04T00:57:16.184Z,15.90
2023-03-04T00:58:19.027Z,15.55
2023-03-04T00:59:21.510Z,14.57
2023-03-04T01:00:24.073Z,15.90
2023-03-04T01:01:26.802Z,16.33
2023-03-04T01:02:29.398Z,14.98
2023-03-04T01:03:32.723Z,15.55
2023-03-04T01:04:35.118Z,16.50
2023-03-04T01:05:37.655Z,14.25
2023-03-04T01:06:40.241Z,15.65
2023-03-04T01:07:42.733Z,13.88
2023-03-04T01:08:45.320Z,15.13
2023-03-04T01:09:47.828Z,17.25
2023-03-04T01:10:50.986Z,14.50
2023-03-04T01:11:53.829Z,14.15
2023-03-04T01:12:56.786Z,16.58
2023-03-04T01:13:59.261Z,15.35
2023-03-04T01:15:02.360Z,15.77
2023-03-04T01:16:05.192Z,15.93
2023-03-04T01:17:07.819Z,16.88
2023-03-04T01:18:10.651Z,16.23
2023-03-04T01:19:13.166Z,15.70
2023-03-04T01:20:15.791Z,14.75
2023-03-04T01:21:18.366Z,14.98
2023-03-04T01:22:20.865Z,15.55
2023-03-04T01:23:23.857Z,16.05
2023-03-04T01:24:26.481Z,15.27
2023-03-04T01:25:28.989Z,15.82
2023-03-04T01:26:31.500Z,14.65
2023-03-04T01:27:33.968Z,15.27
2023-03-04T01:28:36.536Z,13.95
2023-03-04T01:29:41.859Z,14.27
2023-03-04T01:30:44.438Z,12.88
2023-03-04T01:31:47.014Z,14.43
2023-03-04T01:32:49.747Z,14.70
2023-03-04T01:33:52.561Z,13.20
2023-03-04T01:34:55.073Z,13.30
2023-03-04T01:35:58.252Z,13.43
2023-03-04T01:37:03.735Z,15.20
2023-03-04T01:38:06.369Z,15.13
2023-03-04T01:39:08.973Z,13.88
2023-03-04T01:40:12.129Z,14.25
2023-03-04T01:41:14.834Z,13.90
2023-03-04T01:42:21.764Z,14.40
2023-03-04T01:43:28.666Z,14.52
2023-03-04T01:44:31.417Z,13.05
2023-03-04T01:45:34.556Z,12.10
2023-03-04T01:46:37.789Z,13.20
2023-03-04T01:47:40.346Z,14.73
2023-03-04T01:48:43.133Z,13.70
2023-03-04T01:49:49.003Z,14.15
2023-03-04T01:50:52.580Z,11.80
2023-03-04T01:51:58.368Z,13.20
2023-03-04T01:53:01.696Z,13.32
2023-03-04T01:54:04.394Z,13.13
2023-03-04T01:55:16.622Z,12.70
2023-03-04T01:56:39.826Z,12.65
2023-03-04T01:57:42.362Z,12.82
2023-03-04T01:58:44.990Z,12.98
2023-03-04T01:59:48.630Z,13.13
2023-03-04T02:00:51.080Z,13.00
2023-03-04T02:01:57.586Z,13.10
2023-03-04T02:03:07.885Z,12.85
2023-03-04T02:04:11.178Z,13.25
2023-03-04T02:05:14.185Z,13.45
2023-03-04T02:06:16.747Z,14.30
2023-03-04T02:07:19.313Z,13.18
2023-03-04T02:08:23.809Z,13.35
2023-03-04T02:09:26.852Z,13.55
2023-03-04T02:10:30.701Z,13.90
2023-03-04T02:11:35.830Z,12.60
2023-03-04T02:12:38.798Z,13.52
2023-03-04T02:13:41.336Z,12.23
2023-03-04T02:14:44.174Z,12.68
2023-03-04T02:15:47.456Z,13.95
2023-03-04T02:16:51.138Z,13.98
2023-03-04T02:17:53.655Z,13.30
2023-03-04T02:18:56.618Z,13.43
2023-03-04T02:20:45.540Z,12.80
2023-03-04T02:21:48.102Z,13.82
2023-03-04T02:23:06.259Z,12.57
2023-03-04T02:24:20.315Z,11.73
2023-03-04T02:25:26.749Z,12.85
2023-03-04T02:26:31.671Z,12.63
2023-03-04T02:27:35.254Z,13.50
2023-03-04T02:28:37.835Z,14.00
2023-03-04T02:29:40.409Z,14.73
2023-03-04T02:30:43.516Z,13.05
2023-03-04T02:31:48.648Z,14.55
2023-03-04T02:32:52.214Z,14.38
2023-03-04T02:33:57.906Z,14.07
2023-03-04T02:35:02.773Z,13.93
2023-03-04T02:36:05.560Z,13.13
2023-03-04T02:37:11.006Z,13.15
2023-03-04T02:38:13.665Z,13.52
2023-03-04T02:39:28.737Z,14.85
2023-03-04T02:40:33.866Z,13.52
2023-03-04T02:41:36.792Z,14.05
2023-03-04T02:42:39.454Z,14.82
2023-03-04T02:43:41.968Z,12.90
2023-03-04T02:44:47.760Z,14.75
2023-03-04T02:45:51.260Z,14.65
2023-03-04T02:46:54.536Z,14.10
2023-03-04T02:47:57.146Z,15.07
2023-03-04T02:48:59.676Z,13.70
2023-03-04T02:50:04.157Z,14.32
2023-03-04T02:51:06.692Z,12.65
2023-03-04T02:52:10.387Z,14.05
2023-03-04T02:53:13.221Z,13.88
2023-03-04T02:54:20.904Z,13.48
2023-03-04T02:55:23.477Z,13.80
2023-03-04T02:56:26.195Z,12.98
2023-03-04T02:57:29.439Z,14.90
2023-03-04T02:58:31.943Z,15.43
2023-03-04T02:59:35.632Z,14.10
2023-03-04T03:00:39.323Z,12.55
2023-03-04T03:01:42.784Z,12.45
2023-03-04T03:02:45.484Z,13.73
2023-03-04T03:03:48.808Z,13.05
2023-03-04T03:04:51.459Z,13.48
2023-03-04T03:05:55.724Z,13.52
2023-03-04T03:06:58.557Z,13.27
2023-03-04T03:08:02.041Z,14.73
2023-03-04T03:09:04.986Z,13.73
2023-03-04T03:10:07.726Z,14.27
2023-03-04T03:11:10.459Z,14.32
2023-03-04T03:12:13.368Z,13.43
2023-03-04T03:13:15.986Z,13.45
2023-03-04T03:14:18.546Z,14.93
2023-03-04T03:15:21.560Z,12.35
2023-03-04T03:16:24.706Z,14.98
2023-03-04T03:17:27.327Z,13.27
2023-03-04T03:18:29.842Z,14.77
2023-03-04T03:19:32.445Z,13.38
2023-03-04T03:20:37.486Z,14.35
2023-03-04T03:21:39.960Z,13.07
2023-03-04T03:22:43.222Z,14.85
2023-03-04T03:23:45.941Z,13.75
2023-03-04T03:24:48.851Z,14.32
2023-03-04T03:25:51.534Z,13.95
2023-03-04T03:26:54.080Z,13.85
2023-03-04T03:27:56.908Z,14.05
2023-03-04T03:28:59.474Z,13.57
2023-03-04T03:30:04.861Z,15.30
2023-03-04T03:31:07.369Z,13.50
2023-03-04T03:32:10.070Z,14.07
2023-03-04T03:33:12.661Z,14.32
2023-03-04T03:34:15.540Z,13.35
2023-03-04T03:35:18.282Z,14.52
2023-03-04T03:36:20.831Z,14.85
2023-03-04T03:37:23.457Z,13.88
2023-03-04T03:38:26.492Z,14.35
2023-03-04T03:39:29.137Z,13.75
2023-03-04T03:40:31.802Z,13.07
2023-03-04T03:41:34.246Z,13.07
2023-03-04T03:42:37.091Z,13.57
2023-03-04T03:43:39.502Z,13.65
2023-03-04T03:44:42.128Z,14.40
2023-03-04T03:45:44.700Z,14.57
2023-03-04T03:46:47.283Z,13.23
2023-03-04T03:47:49.768Z,12.90
2023-03-04T03:48:52.319Z,12.68
2023-03-04T03:49:55.008Z,12.70
2023-03-04T03:50:57.793Z,12.05
2023-03-04T03:52:00.401Z,12.23
2023-03-04T03:53:03.451Z,12.98
2023-03-04T03:54:06.050Z,13.80
2023-03-04T03:55:09.140Z,12.82
2023-03-04T03:56:11.651Z,12.57
2023-03-04T03:57:14.177Z,13.40
2023-03-04T03:58:16.843Z,12.20
2023-03-04T03:59:20.008Z,12.40
2023-03-04T04:00:22.760Z,12.50
2023-03-04T04:01:25.783Z,13.18
2023-03-04T04:02:28.246Z,12.38
2023-03-04T04:03:31.206Z,12.18
2023-03-04T04:04:33.830Z,12.57
2023-03-04T04:05:36.430Z,12.20
2023-03-04T04:06:38.912Z,11.52
2023-03-04T04:07:41.957Z,10.82
2023-03-04T04:08:44.459Z,11.38
2023-03-04T04:09:48.151Z,13.52
2023-03-04T04:10:50.618Z,11.90
2023-03-04T04:11:53.096Z,12.77
2023-03-04T04:12:55.522Z,12.35
2023-03-04T04:13:58.118Z,12.77
2023-03-04T04:15:00.833Z,11.52
2023-03-04T04:16:03.318Z,11.77
2023-03-04T04:17:05.733Z,11.57
2023-03-04T04:18:08.268Z,12.68
2023-03-04T04:19:17.930Z,11.27
2023-03-04T04:20:20.469Z,11.32
2023-03-04T04:21:23.304Z,12.52
2023-03-04T04:22:25.802Z,11.95
2023-03-04T04:23:28.316Z,11.18
2023-03-04T04:24:30.764Z,10.68
2023-03-04T04:25:33.303Z,11.82
2023-03-04T04:26:35.848Z,11.50
2023-03-04T04:27:38.314Z,11.18
2023-03-04T04:28:40.781Z,12.52
2023-03-04T04:29:43.248Z,12.70
2023-03-04T04:30:45.736Z,11.68
2023-03-04T04:31:48.194Z,11.50
2023-03-04T04:32:50.753Z,12.57
2023-03-04T04:33:53.302Z,11.20
2023-03-04T04:34:55.911Z,10.68
2023-03-04T04:35:58.523Z,12.23
2023-03-04T04:37:01.153Z,12.55
2023-03-04T04:38:03.810Z,11.40
2023-03-04T04:39:06.288Z,10.52
2023-03-04T04:40:09.753Z,11.27
2023-03-04T04:41:24.880Z,11.85
2023-03-04T04:42:27.926Z,11.20
2023-03-04T04:43:30.383Z,11.05
2023-03-04T04:44:32.979Z,13.32
2023-03-04T04:45:35.588Z,13.05
2023-03-04T04:46:38.777Z,11.43
2023-03-04T04:47:41.218Z,11.10
2023-03-04T04:48:43.818Z,10.70
2023-03-04T04:49:46.305Z,12.77
2023-03-04T04:50:55.291Z,12.05
2023-03-04T04:51:57.891Z,11.00
2023-03-04T04:53:00.746Z,11.07
2023-03-04T04:54:04.269Z,10.48
2023-03-04T04:55:07.119Z,11.52
2023-03-04T04:56:15.273Z,11.07
2023-03-04T04:57:17.716Z,12.25
2023-03-04T04:58:20.280Z,12.68
2023-03-04T04:59:22.830Z,10.43
2023-03-04T05:00:25.484Z,10.68
2023-03-04T05:01:28.777Z,11.30
2023-03-04T05:02:31.437Z,10.80
2023-03-04T05:03:35.390Z,11.25
2023-03-04T05:04:37.971Z,11.77
2023-03-04T05:05:40.543Z,10.85
2023-03-04T05:06:43.304Z,11.70
2023-03-04T05:07:45.853Z,10.23
2023-03-04T05:08:48.742Z,10.70
2023-03-04T05:09:51.214Z,11.30
2023-03-04T05:10:54.122Z,11.13
2023-03-04T05:11:56.589Z,10.00
2023-03-04T05:12:59.020Z,11.32
2023-03-04T05:14:01.543Z,10.93
2023-03-04T05:15:04.238Z,10.45
2023-03-04T05:16:07.376Z,11.35
2023-03-04T05:17:09.886Z,11.93
2023-03-04T05:18:12.426Z,10.57
2023-03-04T05:19:14.929Z,10.65
2023-03-04T05:20:17.558Z,11.57
2023-03-04T05:21:20.238Z,10.85
2023-03-04T05:22:22.898Z,10.85
2023-03-04T05:23:27.191Z,11.55
2023-03-04T05:24:29.741Z,10.95
2023-03-04T05:25:32.287Z,10.27
2023-03-04T05:26:35.318Z,10.75
2023-03-04T05:27:37.937Z,10.48
2023-03-04T05:28:40.634Z,8.95
2023-03-04T05:29:44.837Z,10.70
2023-03-04T05:30:48.199Z,10.90
2023-03-04T05:31:51.114Z,9.98
2023-03-04T05:32:53.601Z,10.52
2023-03-04T05:33:56.200Z,10.05
2023-03-04T05:34:58.687Z,10.65
2023-03-04T05:36:02.303Z,10.52
2023-03-04T05:37:04.784Z,11.43
2023-03-04T05:38:08.939Z,10.10
2023-03-04T05:39:11.871Z,10.57
2023-03-04T05:40:14.413Z,9.75
2023-03-04T05:41:19.056Z,10.43
2023-03-04T05:42:21.744Z,10.50
2023-03-04T05:43:24.259Z,10.05
2023-03-04T05:44:26.892Z,11.10
2023-03-04T05:45:29.737Z,10.50
2023-03-04T05:46:33.676Z,11.70
2023-03-04T05:47:36.449Z,10.05
2023-03-04T05:48:38.972Z,10.32
2023-03-04T05:49:41.881Z,10.05
2023-03-04T05:50:44.518Z,10.07
2023-03-04T05:51:47.051Z,9.05
2023-03-04T05:52:50.256Z,9.75
2023-03-04T05:53:52.843Z,11.30
2023-03-04T05:54:55.309Z,10.05
2023-03-04T05:56:00.060Z,11.20
2023-03-04T05:57:02.783Z,10.45
2023-03-04T05:58:05.282Z,9.90
2023-03-04T05:59:07.757Z,9.25
2023-03-04T06:00:13.173Z,10.18
2023-03-04T06:01:16.646Z,10.00
2023-03-04T06:02:24.709Z,9.48
2023-03-04T06:03:27.416Z,9.25
2023-03-04T06:04:29.878Z,9.63
2023-03-04T06:05:32.336Z,9.57
2023-03-04T06:06:34.847Z,9.38
2023-03-04T06:07:37.371Z,9.80
2023-03-04T06:08:40.005Z,9.77
2023-03-04T06:09:45.261Z,9.88
2023-03-04T06:10:47.792Z,9.23
2023-03-04T06:11:50.269Z,9.30
2023-03-04T06:12:52.753Z,8.77
2023-03-04T06:13:55.341Z,8.82
2023-03-04T06:14:57.848Z,7.07
2023-03-04T06:16:01.158Z,8.65
2023-03-04T06:17:03.928Z,9.25
2023-03-04T06:18:07.882Z,8.75
2023-03-04T06:19:10.460Z,9.35
2023-03-04T06:20:13.308Z,9.45
2023-03-04T06:21:15.852Z,9.88
2023-03-04T06:22:18.363Z,8.95
2023-03-04T06:23:20.948Z,9.35
2023-03-04T06:24:23.513Z,9.32
2023-03-04T06:25:26.434Z,9.02
2023-03-04T06:26:28.947Z,9.18
2023-03-04T06:27:31.526Z,8.30
2023-03-04T06:28:34.142Z,8.27
2023-03-04T06:29:36.666Z,8.40
2023-03-04T06:30:39.225Z,12.13
2023-03-04T06:31:42.053Z,11.52
2023-03-04T06:32:44.808Z,9.85
2023-03-04T06:33:47.433Z,9.45
2023-03-04T06:34:50.034Z,9.57
2023-03-04T06:35:56.986Z,9.35
2023-03-04T06:36:59.930Z,9.18
2023-03-04T06:38:02.480Z,9.25
2023-03-04T06:39:08.973Z,9.15
2023-03-04T06:40:12.342Z,8.95
2023-03-04T06:41:14.866Z,9.57
2023-03-04T06:42:17.459Z,9.45
2023-03-04T06:43:20.433Z,9.65
2023-03-04T06:44:22.847Z,8.65
2023-03-04T06:45:25.493Z,8.48
2023-03-04T06:46:30.399Z,9.50
2023-03-04T06:47:33.321Z,8.35
2023-03-04T06:48:36.064Z,8.55
2023-03-04T06:49:38.564Z,9.27
2023-03-04T06:50:41.239Z,9.65
2023-03-04T06:51:43.720Z,9.48
2023-03-04T06:52:46.181Z,8.75
2023-03-04T06:53:48.729Z,9.38
2023-03-04T06:54:51.541Z,8.10
2023-03-04T06:55:54.174Z,8.40
2023-03-04T06:56:56.754Z,9.38
2023-03-04T06:57:59.345Z,10.18
2023-03-04T06:59:01.941Z,8.52
2023-03-04T07:00:04.862Z,9.02
2023-03-04T07:01:24.584Z,8.65
2023-03-04T07:02:27.196Z,8.85
2023-03-04T07:03:29.707Z,9.20
2023-03-04T07:04:32.348Z,9.68
2023-03-04T07:05:34.825Z,8.35
2023-03-04T07:06:37.266Z,8.63
2023-03-04T07:07:39.808Z,7.97
2023-03-04T07:08:42.714Z,9.30
2023-03-04T07:09:45.212Z,8.43
2023-03-04T07:10:47.738Z,8.23
2023-03-04T07:11:50.350Z,8.85
2023-03-04T07:12:52.985Z,7.80
2023-03-04T07:13:55.656Z,7.72
2023-03-04T07:14:58.158Z,7.38
2023-03-04T07:16:02.245Z,7.50
2023-03-04T07:17:04.786Z,8.05
2023-03-04T07:18:07.497Z,9.60
2023-03-04T07:19:10.061Z,8.45
2023-03-04T07:20:12.910Z,8.63
2023-03-04T07:21:16.555Z,9.40
2023-03-04T07:22:19.034Z,8.80
2023-03-04T07:23:21.571Z,9.50
2023-03-04T07:24:24.026Z,8.50
2023-03-04T07:25:27.004Z,8.95
2023-03-04T07:26:29.728Z,8.90
2023-03-04T07:27:32.400Z,8.57
2023-03-04T07:28:35.758Z,8.55
2023-03-04T07:29:38.219Z,7.95
2023-03-04T07:30:40.754Z,7.65
2023-03-04T07:31:43.331Z,9.77
2023-03-04T07:32:45.914Z,7.82
2023-03-04T07:33:48.517Z,8.98
2023-03-04T07:34:51.773Z,8.60
2023-03-04T07:36:00.673Z,8.52
2023-03-04T07:37:03.573Z,8.07
2023-03-04T07:38:06.083Z,8.20
2023-03-04T07:39:08.818Z,7.80
2023-03-04T07:40:12.017Z,8.50
2023-03-04T07:41:15.041Z,8.07
2023-03-04T07:42:17.544Z,7.80
2023-03-04T07:43:28.066Z,7.85
2023-03-04T07:44:30.717Z,8.45
2023-03-04T07:45:33.558Z,7.75
2023-03-04T07:46:36.065Z,7.95
2023-03-04T07:47:39.916Z,8.02
2023-03-04T07:48:42.549Z,7.85
2023-03-04T07:49:44.994Z,8.20
2023-03-04T07:50:47.457Z,7.75
2023-03-04T07:51:50.137Z,8.48
2023-03-04T07:52:53.466Z,7.97
2023-03-04T07:54:00.529Z,7.72
2023-03-04T07:55:03.001Z,8.55
2023-03-04T07:56:07.644Z,7.45
2023-03-04T07:57:10.189Z,7.10
2023-03-04T07:58:12.679Z,7.68
2023-03-04T07:59:15.168Z,8.40
2023-03-04T08:00:18.189Z,6.78
2023-03-04T08:01:34.815Z,7.72
2023-03-04T08:02:37.508Z,8.32
2023-03-04T08:03:40.604Z,7.93
2023-03-04T08:04:43.059Z,6.72
2023-03-04T08:05:45.630Z,7.05
2023-03-04T08:06:49.065Z,6.63
2023-03-04T08:07:51.730Z,7.20
2023-03-04T08:08:59.739Z,7.22
2023-03-04T08:10:02.262Z,8.27
2023-03-04T08:11:06.763Z,6.90
2023-03-04T08:12:09.392Z,7.30
2023-03-04T08:13:11.868Z,6.68
2023-03-04T08:14:14.957Z,6.90
2023-03-04T08:15:17.631Z,6.72
2023-03-04T08:16:21.551Z,6.75
2023-03-04T08:17:24.007Z,6.30
2023-03-04T08:18:27.304Z,7.25
2023-03-04T08:19:30.069Z,6.68
2023-03-04T08:20:32.575Z,7.25
2023-03-04T08:21:35.585Z,6.57
2023-03-04T08:22:38.006Z,6.93
2023-03-04T08:23:42.580Z,6.38
2023-03-04T08:24:45.298Z,6.75
2023-03-04T08:25:48.132Z,6.90
2023-03-04T08:26:51.408Z,6.40
2023-03-04T08:27:54.272Z,7.20
2023-03-04T08:28:57.798Z,6.55
2023-03-04T08:30:00.375Z,6.05
2023-03-04T08:31:03.181Z,6.82
2023-03-04T08:32:05.963Z,6.70
2023-03-04T08:33:09.342Z,5.90
2023-03-04T08:34:13.594Z,7.20
2023-03-04T08:35:16.273Z,6.88
2023-03-04T08:36:19.186Z,6.30
2023-03-04T08:37:21.614Z,6.85
2023-03-04T08:38:24.494Z,6.97
2023-03-04T08:39:27.028Z,6.57
2023-03-04T08:40:31.150Z,6.53
2023-03-04T08:41:33.982Z,6.38
2023-03-04T08:42:36.548Z,6.10
2023-03-04T08:43:39.414Z,6.97
2023-03-04T08:44:41.972Z,6.10
2023-03-04T08:45:44.438Z,6.07
2023-03-04T08:46:46.943Z,6.80
2023-03-04T08:47:49.920Z,6.32
2023-03-04T08:48:52.511Z,6.40
2023-03-04T08:49:54.930Z,6.32
2023-03-04T08:50:57.445Z,6.72
2023-03-04T08:51:59.868Z,7.55
2023-03-04T08:53:02.367Z,6.07
2023-03-04T08:54:05.605Z,6.18
2023-03-04T08:55:08.537Z,7.05
2023-03-04T08:56:11.922Z,6.63
2023-03-04T08:57:14.524Z,6.72
2023-03-04T08:58:16.992Z,6.70
2023-03-04T08:59:19.521Z,5.32
2023-03-04T09:00:23.872Z,6.50
2023-03-04T09:01:26.785Z,5.57
2023-03-04T09:02:29.268Z,6.45
2023-03-04T09:03:31.895Z,6.60
2023-03-04T09:04:34.711Z,5.90
2023-03-04T09:05:37.450Z,5.88
2023-03-04T09:06:40.833Z,6.32
2023-03-04T09:07:43.342Z,5.70
2023-03-04T09:08:46.030Z,6.03
2023-03-04T09:09:48.587Z,5.75
2023-03-04T09:10:54.166Z,5.97
2023-03-04T09:11:56.791Z,5.20
2023-03-04T09:12:59.644Z,5.18
2023-03-04T09:14:02.184Z,5.65
2023-03-04T09:15:13.984Z,6.28
2023-03-04T09:16:17.249Z,5.15
2023-03-04T09:17:19.744Z,5.55
2023-03-04T09:18:24.123Z,5.63
2023-03-04T09:19:27.987Z,5.68
2023-03-04T09:20:31.627Z,6.20
2023-03-04T09:21:34.142Z,6.50
2023-03-04T09:22:38.222Z,6.18
2023-03-04T09:23:40.915Z,6.22
2023-03-04T09:24:43.593Z,6.10
2023-03-04T09:25:47.576Z,5.60
2023-03-04T09:26:55.120Z,6.65
2023-03-04T09:27:57.727Z,6.05
2023-03-04T09:29:02.119Z,5.70
2023-03-04T09:30:04.950Z,6.10
2023-03-04T09:31:12.895Z,6.00
2023-03-04T09:32:15.589Z,5.20
2023-03-04T09:33:18.225Z,6.38
2023-03-04T09:34:20.726Z,6.30
2023-03-04T09:35:23.544Z,6.53
2023-03-04T09:36:26.258Z,6.50
2023-03-04T09:37:28.765Z,6.22
2023-03-04T09:38:31.276Z,6.82
2023-03-04T09:39:33.891Z,5.50
2023-03-04T09:40:39.087Z,6.10
2023-03-04T09:41:45.308Z,6.10
2023-03-04T09:42:52.187Z,6.53
2023-03-04T09:43:55.054Z,6.45
2023-03-04T09:44:58.091Z,5.63
2023-03-04T09:46:03.623Z,6.85
2023-03-04T09:47:11.931Z,6.60
2023-03-04T09:48:18.036Z,6.13
2023-03-04T09:49:21.744Z,6.78
2023-03-04T09:50:24.229Z,5.88
2023-03-04T09:51:41.776Z,6.75
2023-03-04T09:52:59.004Z,5.70
2023-03-04T09:54:23.311Z,6.30
2023-03-04T09:55:37.686Z,5.45
2023-03-04T09:56:42.130Z,6.20
2023-03-04T09:57:53.688Z,6.30
2023-03-04T09:59:02.243Z,5.63
2023-03-04T10:00:26.350Z,6.07
2023-03-04T10:01:36.638Z,6.55
2023-03-04T10:03:11.269Z,6.32
2023-03-04T10:04:19.479Z,6.28
2023-03-04T10:05:24.301Z,6.68
2023-03-04T10:06:27.988Z,7.43
2023-03-04T10:07:35.672Z,6.13
2023-03-04T10:08:50.846Z,6.47
2023-03-04T10:10:01.625Z,7.18
2023-03-04T10:12:15.644Z,6.55
2023-03-04T10:13:26.801Z,6.47
2023-03-04T10:14:40.611Z,7.63
2023-03-04T10:15:46.538Z,7.35
2023-03-04T10:16:53.523Z,6.72
2023-03-04T10:18:02.946Z,6.40
2023-03-04T10:19:14.305Z,6.45
2023-03-04T10:20:23.871Z,6.75
2023-03-04T10:21:35.155Z,6.80
2023-03-04T10:23:00.245Z,6.90
2023-03-04T10:24:14.907Z,7.70
2023-03-04T10:25:23.484Z,8.05
2023-03-04T10:26:30.373Z,7.72
2023-03-04T10:27:33.028Z,7.10
2023-03-04T10:28:35.891Z,8.05
2023-03-04T10:29:38.797Z,6.63
2023-03-04T10:30:55.959Z,7.03
2023-03-04T10:31:58.714Z,6.60
2023-03-04T10:33:16.950Z,6.75
2023-03-04T10:34:19.498Z,5.85
2023-03-04T10:35:23.578Z,8.35
2023-03-04T10:36:34.509Z,6.63
2023-03-04T10:37:49.187Z,8.23
2023-03-04T10:39:15.202Z,7.13
2023-03-04T10:40:24.189Z,8.20
2023-03-04T10:41:29.080Z,7.90
2023-03-04T10:42:37.624Z,7.78
2023-03-04T10:43:40.795Z,6.90
2023-03-04T10:44:51.313Z,7.40
2023-03-04T10:46:01.352Z,6.88
2023-03-04T10:47:10.354Z,7.15
2023-03-04T10:48:30.675Z,8.27
2023-03-04T10:49:33.174Z,7.05
2023-03-04T10:50:35.594Z,8.25
2023-03-04T10:51:51.929Z,6.70
2023-03-04T10:52:56.008Z,6.57
2023-03-04T10:54:04.826Z,6.60
2023-03-04T10:55:22.436Z,7.25
2023-03-04T10:56:41.092Z,6.18
2023-03-04T10:57:45.439Z,7.07
2023-03-04T10:58:48.075Z,6.55
2023-03-04T10:59:58.261Z,7.82
2023-03-04T11:01:06.902Z,6.88
2023-03-04T11:02:36.403Z,6.57
2023-03-04T11:03:39.027Z,6.32
2023-03-04T11:04:41.654Z,6.88
2023-03-04T11:05:44.412Z,7.00
2023-03-04T11:06:46.880Z,7.35
2023-03-04T11:07:57.848Z,7.65
2023-03-04T11:09:01.009Z,6.20
2023-03-04T11:10:21.472Z,6.75
2023-03-04T11:11:44.490Z,6.88
2023-03-04T11:12:59.163Z,6.80
2023-03-04T11:14:06.524Z,7.45
2023-03-04T11:15:20.604Z,6.43
2023-03-04T11:16:32.262Z,6.38
2023-03-04T11:17:44.536Z,6.75
2023-03-04T11:18:53.014Z,5.65
2023-03-04T11:20:20.693Z,5.93
2023-03-04T11:21:30.595Z,6.32
2023-03-04T11:22:33.177Z,6.45
2023-03-04T11:23:49.666Z,6.32
2023-03-04T11:24:57.882Z,6.35
2023-03-04T11:26:07.072Z,6.25
2023-03-04T11:27:20.971Z,7.05
2023-03-04T11:28:32.588Z,6.22
2023-03-04T11:29:45.988Z,6.65
2023-03-04T11:31:00.251Z,7.05
2023-03-04T11:32:29.154Z,6.80
2023-03-04T11:33:46.621Z,6.40
2023-03-04T11:34:52.345Z,6.28
2023-03-04T11:36:05.141Z,7.90
2023-03-04T11:37:19.493Z,6.43
2023-03-04T11:38:33.817Z,6.07
2023-03-04T11:39:44.701Z,8.10
2023-03-04T11:40:53.195Z,7.18
2023-03-04T11:42:03.527Z,8.70
2023-03-04T11:43:34.877Z,7.65
2023-03-04T11:44:37.339Z,6.57
2023-03-04T11:46:05.712Z,6.65
2023-03-04T11:47:41.431Z,6.78
2023-03-04T11:49:17.024Z,7.47
2023-03-04T11:50:23.877Z,6.28
2023-03-04T11:51:33.255Z,6.72
2023-03-04T11:52:50.183Z,6.32
2023-03-04T11:54:04.832Z,6.05
2023-03-04T11:55:11.747Z,6.68
2023-03-04T11:56:27.747Z,6.32
2023-03-04T11:57:51.504Z,6.43
2023-03-04T11:59:10.450Z,5.85
2023-03-04T12:00:16.738Z,6.25
2023-03-04T12:01:33.802Z,5.32
2023-03-04T12:03:18.417Z,7.75
2023-03-04T12:04:48.357Z,7.10
2023-03-04T12:06:06.238Z,6.68
2023-03-04T12:07:22.951Z,6.03
2023-03-04T12:08:36.818Z,5.40
2023-03-04T12:10:04.765Z,6.63
2023-03-04T12:11:16.360Z,5.72
2023-03-04T12:12:33.955Z,6.35
2023-03-04T12:13:40.975Z,7.20
2023-03-04T12:15:08.147Z,6.20
2023-03-04T12:16:39.821Z,6.38
2023-03-04T12:17:42.260Z,6.82
2023-03-04T12:18:56.503Z,6.47
2023-03-04T12:20:17.778Z,6.05
2023-03-04T12:21:49.434Z,6.15
2023-03-04T12:23:11.060Z,5.57
2023-03-04T12:24:31.461Z,5.20
2023-03-04T12:25:40.702Z,6.32
2023-03-04T12:26:46.303Z,5.72
2023-03-04T12:28:18.369Z,6.03
2023-03-04T12:29:39.483Z,5.57
2023-03-04T12:32:24.043Z,5.80
2023-03-04T12:34:14.105Z,6.40
2023-03-04T12:35:35.085Z,5.85
2023-03-04T12:36:43.700Z,5.80
2023-03-04T12:37:58.460Z,6.53
2023-03-04T12:39:21.824Z,7.35
2023-03-04T12:40:33.545Z,5.85
2023-03-04T12:41:50.990Z,6.18
2023-03-04T12:43:17.061Z,4.90
2023-03-04T12:44:20.995Z,5.93
2023-03-04T12:45:37.146Z,5.93
2023-03-04T12:47:08.841Z,5.43
2023-03-04T12:48:20.246Z,5.68
2023-03-04T12:49:56.090Z,5.43
2023-03-04T12:51:11.483Z,4.95
2023-03-04T12:52:38.242Z,4.95
2023-03-04T12:54:10.945Z,4.63
2023-03-04T12:55:16.858Z,5.55
2023-03-04T12:56:24.073Z,7.07
2023-03-04T12:57:31.589Z,6.15
2023-03-04T12:58:36.592Z,5.70
2023-03-04T12:59:50.094Z,5.55
2023-03-04T13:01:12.679Z,4.47
2023-03-04T13:02:33.714Z,5.85
2023-03-04T13:03:56.918Z,6.28
2023-03-04T13:05:14.454Z,5.85
2023-03-04T13:06:46.507Z,5.85
2023-03-04T13:07:58.924Z,6.65
2023-03-04T13:09:23.462Z,4.72
2023-03-04T13:10:26.090Z,2.58
2023-03-04T13:11:29.077Z,2.58
2023-03-04T13:12:47.468Z,2.13
2023-03-04T13:14:05.011Z,3.17
2023-03-04T13:15:07.487Z,2.15
2023-03-04T13:16:42.659Z,2.10
2023-03-04T13:17:58.170Z,2.50
2023-03-04T13:19:00.778Z,2.75
2023-03-04T13:20:20.062Z,2.88
2023-03-04T13:21:28.842Z,3.45
2023-03-04T13:22:43.516Z,4.07
2023-03-04T13:23:46.076Z,3.42
2023-03-04T13:24:52.434Z,3.17
2023-03-04T13:25:58.014Z,2.50
2023-03-04T13:27:00.533Z,2.53
2023-03-04T13:28:03.078Z,3.13
2023-03-04T13:29:32.157Z,3.50
2023-03-04T13:30:34.632Z,3.65
2023-03-04T13:32:01.482Z,4.00
2023-03-04T13:33:09.768Z,4.32
2023-03-04T13:34:42.287Z,3.88
2023-03-04T13:35:50.508Z,4.40
2023-03-04T13:36:56.095Z,5.82
2023-03-04T13:37:59.548Z,4.95
2023-03-04T13:39:17.218Z,5.53
2023-03-04T13:40:27.482Z,4.63
2023-03-04T13:42:00.477Z,4.80
2023-03-04T13:43:25.371Z,3.97
2023-03-04T13:44:46.141Z,3.50
2023-03-04T13:45:48.711Z,3.85
2023-03-04T13:46:51.345Z,3.20
2023-03-04T13:47:54.273Z,3.80
2023-03-04T13:48:56.719Z,3.90
2023-03-04T13:50:24.871Z,3.83
2023-03-04T13:51:30.637Z,4.57
2023-03-04T13:52:44.409Z,4.07
2023-03-04T13:53:58.270Z,4.68
2023-03-04T13:55:39.875Z,4.78
2023-03-04T13:56:47.618Z,3.60
2023-03-04T13:57:51.848Z,4.43
2023-03-04T13:59:09.477Z,4.03
2023-03-04T14:00:13.095Z,3.92
2023-03-04T14:01:27.685Z,4.25
2023-03-04T14:02:34.594Z,4.38
2023-03-04T14:03:37.382Z,4.22
2023-03-04T14:04:42.460Z,4.55
2023-03-04T14:05:44.989Z,4.07
2023-03-04T14:06:48.735Z,4.45
2023-03-04T14:07:51.284Z,4.07
2023-03-04T14:08:54.635Z,4.45
2023-03-04T14:10:04.830Z,5.72
2023-03-04T14:11:26.316Z,6.53
2023-03-04T14:12:30.856Z,5.65
2023-03-04T14:13:34.537Z,5.20
2023-03-04T14:14:55.254Z,4.68
2023-03-04T14:15:58.992Z,4.13
2023-03-04T14:17:04.673Z,3.70
2023-03-04T14:18:07.248Z,3.55
2023-03-04T14:19:16.649Z,3.42
2023-03-04T14:20:34.196Z,3.63
2023-03-04T14:21:37.167Z,3.53
2023-03-04T14:22:40.749Z,3.35
2023-03-04T14:23:44.612Z,4.10
2023-03-04T14:25:04.303Z,4.20
2023-03-04T14:26:18.197Z,3.85
2023-03-04T14:27:20.718Z,4.57
2023-03-04T14:28:23.179Z,3.63
2023-03-04T14:29:28.060Z,3.35
2023-03-04T14:30:42.322Z,2.65
2023-03-04T14:31:46.644Z,2.47
2023-03-04T14:32:49.509Z,2.75